sensor_id;sensor_type;location;lat;lon;timestamp;P1;durP1;ratioP1;P2;durP2;ratioP2
1262;SDS011;62267;50.112;8.704;2024-01-15T00:01:09;40.60;;;19.77;;
1262;SDS011;62267;50.112;8.704;2024-01-15T00:03:36;38.08;;;18.80;;
1262;SDS011;62267;50.112;8.704;2024-01-15T00:06:04;33.40;;;17.50;;
1262;SDS011;62267;50.112;8.704;2024-01-15T00:08:31;31.23;;;17.00;;
1262;SDS011;62267;50.112;8.704;2024-01-15T00:10:59;34.45;;;17.73;;
1262;SDS011;62267;50.112;8.704;2024-01-15T00:13:27;31.38;;;17.00;;
1262;SDS011;62267;50.112;8.704;2024-01-15T00:15:54;42.25;;;19.52;;
1262;SDS011;62267;50.112;8.704;2024-01-15T00:18:21;36.95;;;18.83;;
1262;SDS011;62267;50.112;8.704;2024-01-15T00:20:49;32.28;;;18.08;;
1262;SDS011;62267;50.112;8.704;2024-01-15T00:23:18;34.28;;;18.48;;
1262;SDS011;62267;50.112;8.704;2024-01-15T00:25:45;40.97;;;19.02;;
1262;SDS011;62267;50.112;8.704;2024-01-15T00:28:12;43.83;;;19.48;;
1262;SDS011;62267;50.112;8.704;2024-01-15T00:30:40;42.13;;;20.13;;
1262;SDS011;62267;50.112;8.704;2024-01-15T00:33:08;37.00;;;17.20;;
1262;SDS011;62267;50.112;8.704;2024-01-15T00:35:39;35.47;;;16.52;;
1262;SDS011;62267;50.112;8.704;2024-01-15T00:38:06;36.50;;;17.40;;
1262;SDS011;62267;50.112;8.704;2024-01-15T00:40:34;31.25;;;16.08;;
1262;SDS011;62267;50.112;8.704;2024-01-15T00:43:01;34.17;;;17.92;;
1262;SDS011;62267;50.112;8.704;2024-01-15T00:45:29;35.95;;;16.55;;
1262;SDS011;62267;50.112;8.704;2024-01-15T00:47:56;32.08;;;16.35;;
1262;SDS011;62267;50.112;8.704;2024-01-15T00:50:26;26.42;;;16.50;;
1262;SDS011;62267;50.112;8.704;2024-01-15T00:52:54;29.25;;;15.40;;
1262;SDS011;62267;50.112;8.704;2024-01-15T00:55:23;35.30;;;15.98;;
1262;SDS011;62267;50.112;8.704;2024-01-15T00:57:50;32.83;;;16.58;;
1262;SDS011;62267;50.112;8.704;2024-01-15T01:00:17;38.08;;;17.45;;
1262;SDS011;62267;50.112;8.704;2024-01-15T01:02:45;30.85;;;15.55;;
1262;SDS011;62267;50.112;8.704;2024-01-15T01:05:12;30.23;;;14.55;;
1262;SDS011;62267;50.112;8.704;2024-01-15T01:07:40;32.70;;;16.85;;
1262;SDS011;62267;50.112;8.704;2024-01-15T01:10:14;31.73;;;14.85;;
1262;SDS011;62267;50.112;8.704;2024-01-15T01:12:42;32.70;;;16.63;;
1262;SDS011;62267;50.112;8.704;2024-01-15T01:15:10;34.05;;;15.43;;
1262;SDS011;62267;50.112;8.704;2024-01-15T01:17:37;27.00;;;15.32;;
1262;SDS011;62267;50.112;8.704;2024-01-15T01:20:05;31.90;;;15.75;;
1262;SDS011;62267;50.112;8.704;2024-01-15T01:22:35;38.45;;;16.27;;
1262;SDS011;62267;50.112;8.704;2024-01-15T01:25:02;36.47;;;15.20;;
1262;SDS011;62267;50.112;8.704;2024-01-15T01:27:30;28.88;;;14.80;;
1262;SDS011;62267;50.112;8.704;2024-01-15T01:29:57;31.92;;;15.38;;
1262;SDS011;62267;50.112;8.704;2024-01-15T01:32:25;30.52;;;14.65;;
1262;SDS011;62267;50.112;8.704;2024-01-15T01:34:52;37.67;;;16.38;;
1262;SDS011;62267;50.112;8.704;2024-01-15T01:37:20;30.83;;;15.73;;
1262;SDS011;62267;50.112;8.704;2024-01-15T01:39:47;30.60;;;15.70;;
1262;SDS011;62267;50.112;8.704;2024-01-15T01:42:15;37.35;;;15.70;;
1262;SDS011;62267;50.112;8.704;2024-01-15T01:44:42;30.33;;;15.43;;
1262;SDS011;62267;50.112;8.704;2024-01-15T01:47:09;29.35;;;15.82;;
1262;SDS011;62267;50.112;8.704;2024-01-15T01:49:37;34.30;;;16.30;;
1262;SDS011;62267;50.112;8.704;2024-01-15T01:52:05;32.03;;;15.02;;
1262;SDS011;62267;50.112;8.704;2024-01-15T01:54:33;31.73;;;15.85;;
1262;SDS011;62267;50.112;8.704;2024-01-15T01:57:01;31.17;;;16.92;;
1262;SDS011;62267;50.112;8.704;2024-01-15T01:59:29;28.17;;;15.63;;
1262;SDS011;62267;50.112;8.704;2024-01-15T02:01:57;31.27;;;15.43;;
1262;SDS011;62267;50.112;8.704;2024-01-15T02:04:25;30.42;;;15.77;;
1262;SDS011;62267;50.112;8.704;2024-01-15T02:06:54;32.50;;;14.10;;
1262;SDS011;62267;50.112;8.704;2024-01-15T02:09:22;29.17;;;15.75;;
1262;SDS011;62267;50.112;8.704;2024-01-15T02:11:51;30.73;;;16.85;;
1262;SDS011;62267;50.112;8.704;2024-01-15T02:14:19;30.08;;;14.30;;
1262;SDS011;62267;50.112;8.704;2024-01-15T02:16:48;31.58;;;14.35;;
1262;SDS011;62267;50.112;8.704;2024-01-15T02:19:16;29.17;;;15.48;;
1262;SDS011;62267;50.112;8.704;2024-01-15T02:21:44;34.97;;;17.45;;
1262;SDS011;62267;50.112;8.704;2024-01-15T02:24:11;26.92;;;14.38;;
1262;SDS011;62267;50.112;8.704;2024-01-15T02:26:39;27.52;;;15.02;;
1262;SDS011;62267;50.112;8.704;2024-01-15T02:29:07;32.85;;;15.15;;
1262;SDS011;62267;50.112;8.704;2024-01-15T02:31:37;25.27;;;13.13;;
1262;SDS011;62267;50.112;8.704;2024-01-15T02:34:05;27.00;;;13.63;;
1262;SDS011;62267;50.112;8.704;2024-01-15T02:36:34;30.55;;;15.23;;
1262;SDS011;62267;50.112;8.704;2024-01-15T02:39:02;29.48;;;14.80;;
1262;SDS011;62267;50.112;8.704;2024-01-15T02:41:30;26.38;;;14.63;;
1262;SDS011;62267;50.112;8.704;2024-01-15T02:43:57;27.80;;;14.77;;
1262;SDS011;62267;50.112;8.704;2024-01-15T02:46:24;32.05;;;14.35;;
1262;SDS011;62267;50.112;8.704;2024-01-15T02:48:52;35.17;;;15.80;;
1262;SDS011;62267;50.112;8.704;2024-01-15T02:51:19;27.77;;;16.00;;
1262;SDS011;62267;50.112;8.704;2024-01-15T02:53:48;22.20;;;13.65;;
1262;SDS011;62267;50.112;8.704;2024-01-15T02:56:15;27.25;;;14.50;;
1262;SDS011;62267;50.112;8.704;2024-01-15T02:58:42;28.08;;;13.88;;
1262;SDS011;62267;50.112;8.704;2024-01-15T03:01:10;25.00;;;13.02;;
1262;SDS011;62267;50.112;8.704;2024-01-15T03:03:39;27.33;;;14.18;;
1262;SDS011;62267;50.112;8.704;2024-01-15T03:06:06;32.28;;;13.93;;
1262;SDS011;62267;50.112;8.704;2024-01-15T03:08:34;29.60;;;16.00;;
1262;SDS011;62267;50.112;8.704;2024-01-15T03:11:02;33.23;;;15.40;;
1262;SDS011;62267;50.112;8.704;2024-01-15T03:13:29;32.97;;;14.95;;
1262;SDS011;62267;50.112;8.704;2024-01-15T03:15:59;30.67;;;15.93;;
1262;SDS011;62267;50.112;8.704;2024-01-15T03:18:26;32.72;;;15.80;;
1262;SDS011;62267;50.112;8.704;2024-01-15T03:20:54;24.37;;;12.93;;
1262;SDS011;62267;50.112;8.704;2024-01-15T03:23:21;32.03;;;16.00;;
1262;SDS011;62267;50.112;8.704;2024-01-15T03:25:49;32.15;;;16.27;;
1262;SDS011;62267;50.112;8.704;2024-01-15T03:28:16;33.30;;;15.70;;
1262;SDS011;62267;50.112;8.704;2024-01-15T03:30:45;27.00;;;14.60;;
1262;SDS011;62267;50.112;8.704;2024-01-15T03:33:13;27.95;;;13.25;;
1262;SDS011;62267;50.112;8.704;2024-01-15T03:35:40;28.37;;;14.83;;
1262;SDS011;62267;50.112;8.704;2024-01-15T03:38:07;27.75;;;13.35;;
1262;SDS011;62267;50.112;8.704;2024-01-15T03:40:36;35.97;;;17.10;;
1262;SDS011;62267;50.112;8.704;2024-01-15T03:43:04;34.03;;;14.95;;
1262;SDS011;62267;50.112;8.704;2024-01-15T03:45:31;32.95;;;14.40;;
1262;SDS011;62267;50.112;8.704;2024-01-15T03:47:58;24.63;;;13.60;;
1262;SDS011;62267;50.112;8.704;2024-01-15T03:50:27;29.85;;;14.27;;
1262;SDS011;62267;50.112;8.704;2024-01-15T03:52:55;25.55;;;14.00;;
1262;SDS011;62267;50.112;8.704;2024-01-15T03:55:22;25.85;;;14.55;;
1262;SDS011;62267;50.112;8.704;2024-01-15T03:57:50;31.57;;;13.63;;
1262;SDS011;62267;50.112;8.704;2024-01-15T04:00:17;28.60;;;14.45;;
1262;SDS011;62267;50.112;8.704;2024-01-15T04:02:45;27.17;;;13.75;;
1262;SDS011;62267;50.112;8.704;2024-01-15T04:05:12;31.52;;;13.82;;
1262;SDS011;62267;50.112;8.704;2024-01-15T04:07:40;34.15;;;14.77;;
1262;SDS011;62267;50.112;8.704;2024-01-15T04:10:07;28.40;;;14.75;;
1262;SDS011;62267;50.112;8.704;2024-01-15T04:12:35;30.23;;;15.18;;
1262;SDS011;62267;50.112;8.704;2024-01-15T04:15:02;32.63;;;14.90;;
1262;SDS011;62267;50.112;8.704;2024-01-15T04:17:31;23.52;;;12.73;;
1262;SDS011;62267;50.112;8.704;2024-01-15T04:19:58;31.43;;;14.30;;
1262;SDS011;62267;50.112;8.704;2024-01-15T04:22:26;27.27;;;13.30;;
1262;SDS011;62267;50.112;8.704;2024-01-15T04:24:54;24.80;;;13.50;;
1262;SDS011;62267;50.112;8.704;2024-01-15T04:27:21;30.52;;;14.25;;
1262;SDS011;62267;50.112;8.704;2024-01-15T04:29:49;24.85;;;12.13;;
1262;SDS011;62267;50.112;8.704;2024-01-15T04:32:16;21.40;;;12.57;;
1262;SDS011;62267;50.112;8.704;2024-01-15T04:34:44;24.67;;;12.88;;
1262;SDS011;62267;50.112;8.704;2024-01-15T04:37:13;25.48;;;12.02;;
1262;SDS011;62267;50.112;8.704;2024-01-15T04:39:40;23.45;;;12.98;;
1262;SDS011;62267;50.112;8.704;2024-01-15T04:42:08;26.95;;;12.57;;
1262;SDS011;62267;50.112;8.704;2024-01-15T04:44:36;20.63;;;12.30;;
1262;SDS011;62267;50.112;8.704;2024-01-15T04:47:03;28.63;;;13.70;;
1262;SDS011;62267;50.112;8.704;2024-01-15T04:49:33;25.42;;;13.85;;
1262;SDS011;62267;50.112;8.704;2024-01-15T04:52:00;25.85;;;12.77;;
1262;SDS011;62267;50.112;8.704;2024-01-15T04:54:28;27.07;;;13.23;;
1262;SDS011;62267;50.112;8.704;2024-01-15T04:56:55;24.48;;;12.35;;
1262;SDS011;62267;50.112;8.704;2024-01-15T04:59:22;32.70;;;13.45;;
1262;SDS011;62267;50.112;8.704;2024-01-15T05:01:49;24.52;;;13.20;;
1262;SDS011;62267;50.112;8.704;2024-01-15T05:04:16;25.50;;;14.00;;
1262;SDS011;62267;50.112;8.704;2024-01-15T05:06:45;24.10;;;14.00;;
1262;SDS011;62267;50.112;8.704;2024-01-15T05:09:12;33.03;;;14.20;;
1262;SDS011;62267;50.112;8.704;2024-01-15T05:11:40;29.38;;;12.93;;
1262;SDS011;62267;50.112;8.704;2024-01-15T05:14:07;25.35;;;15.15;;
1262;SDS011;62267;50.112;8.704;2024-01-15T05:16:34;33.33;;;15.53;;
1262;SDS011;62267;50.112;8.704;2024-01-15T05:19:01;33.58;;;15.95;;
1262;SDS011;62267;50.112;8.704;2024-01-15T05:21:28;30.88;;;14.85;;
1262;SDS011;62267;50.112;8.704;2024-01-15T05:23:56;27.05;;;14.48;;
1262;SDS011;62267;50.112;8.704;2024-01-15T05:26:23;31.30;;;14.38;;
1262;SDS011;62267;50.112;8.704;2024-01-15T05:28:50;30.75;;;13.60;;
1262;SDS011;62267;50.112;8.704;2024-01-15T05:31:17;27.07;;;12.60;;
1262;SDS011;62267;50.112;8.704;2024-01-15T05:33:45;26.83;;;12.90;;
1262;SDS011;62267;50.112;8.704;2024-01-15T05:36:12;29.10;;;14.40;;
1262;SDS011;62267;50.112;8.704;2024-01-15T05:38:42;34.85;;;15.93;;
1262;SDS011;62267;50.112;8.704;2024-01-15T05:41:09;28.43;;;14.27;;
1262;SDS011;62267;50.112;8.704;2024-01-15T05:43:36;30.73;;;15.47;;
1262;SDS011;62267;50.112;8.704;2024-01-15T05:46:04;25.17;;;13.03;;
1262;SDS011;62267;50.112;8.704;2024-01-15T05:48:31;22.60;;;11.43;;
1262;SDS011;62267;50.112;8.704;2024-01-15T05:51:01;27.63;;;12.83;;
1262;SDS011;62267;50.112;8.704;2024-01-15T05:53:28;23.35;;;13.40;;
1262;SDS011;62267;50.112;8.704;2024-01-15T05:55:56;29.73;;;14.50;;
1262;SDS011;62267;50.112;8.704;2024-01-15T05:58:23;34.70;;;15.27;;
1262;SDS011;62267;50.112;8.704;2024-01-15T06:00:50;27.88;;;15.68;;
1262;SDS011;62267;50.112;8.704;2024-01-15T06:03:17;26.17;;;14.20;;
1262;SDS011;62267;50.112;8.704;2024-01-15T06:05:45;28.63;;;13.85;;
1262;SDS011;62267;50.112;8.704;2024-01-15T06:08:12;30.70;;;13.70;;
1262;SDS011;62267;50.112;8.704;2024-01-15T06:10:41;30.00;;;14.25;;
1262;SDS011;62267;50.112;8.704;2024-01-15T06:13:08;32.03;;;16.03;;
1262;SDS011;62267;50.112;8.704;2024-01-15T06:15:35;28.70;;;12.90;;
1262;SDS011;62267;50.112;8.704;2024-01-15T06:18:03;33.83;;;14.03;;
1262;SDS011;62267;50.112;8.704;2024-01-15T06:20:31;23.13;;;13.32;;
1262;SDS011;62267;50.112;8.704;2024-01-15T06:22:58;28.17;;;13.73;;
1262;SDS011;62267;50.112;8.704;2024-01-15T06:25:25;22.23;;;13.43;;
1262;SDS011;62267;50.112;8.704;2024-01-15T06:27:52;26.80;;;13.20;;
1262;SDS011;62267;50.112;8.704;2024-01-15T06:30:20;32.63;;;15.03;;
1262;SDS011;62267;50.112;8.704;2024-01-15T06:32:49;28.27;;;14.05;;
1262;SDS011;62267;50.112;8.704;2024-01-15T06:35:17;24.80;;;12.70;;
1262;SDS011;62267;50.112;8.704;2024-01-15T06:37:48;21.80;;;13.13;;
1262;SDS011;62267;50.112;8.704;2024-01-15T06:40:16;26.65;;;14.15;;
1262;SDS011;62267;50.112;8.704;2024-01-15T06:42:44;25.53;;;14.50;;
1262;SDS011;62267;50.112;8.704;2024-01-15T06:45:11;31.02;;;15.70;;
1262;SDS011;62267;50.112;8.704;2024-01-15T06:47:40;27.13;;;14.40;;
1262;SDS011;62267;50.112;8.704;2024-01-15T06:50:08;26.90;;;14.00;;
1262;SDS011;62267;50.112;8.704;2024-01-15T06:52:35;36.75;;;15.65;;
1262;SDS011;62267;50.112;8.704;2024-01-15T06:55:05;29.53;;;13.97;;
1262;SDS011;62267;50.112;8.704;2024-01-15T06:57:32;34.93;;;14.97;;
1262;SDS011;62267;50.112;8.704;2024-01-15T06:59:59;29.52;;;15.20;;
1262;SDS011;62267;50.112;8.704;2024-01-15T07:02:27;34.07;;;15.07;;
1262;SDS011;62267;50.112;8.704;2024-01-15T07:04:54;23.77;;;14.37;;
1262;SDS011;62267;50.112;8.704;2024-01-15T07:07:21;25.97;;;14.03;;
1262;SDS011;62267;50.112;8.704;2024-01-15T07:09:49;26.93;;;15.10;;
1262;SDS011;62267;50.112;8.704;2024-01-15T07:12:18;34.77;;;15.80;;
1262;SDS011;62267;50.112;8.704;2024-01-15T07:14:45;28.50;;;14.20;;
1262;SDS011;62267;50.112;8.704;2024-01-15T07:17:13;29.25;;;15.15;;
1262;SDS011;62267;50.112;8.704;2024-01-15T07:19:40;33.67;;;14.73;;
1262;SDS011;62267;50.112;8.704;2024-01-15T07:22:07;30.10;;;15.50;;
1262;SDS011;62267;50.112;8.704;2024-01-15T07:24:34;31.90;;;17.27;;
1262;SDS011;62267;50.112;8.704;2024-01-15T07:27:02;29.97;;;14.50;;
1262;SDS011;62267;50.112;8.704;2024-01-15T07:29:30;27.03;;;15.60;;
1262;SDS011;62267;50.112;8.704;2024-01-15T07:32:02;23.83;;;14.48;;
1262;SDS011;62267;50.112;8.704;2024-01-15T07:34:31;25.73;;;13.15;;
1262;SDS011;62267;50.112;8.704;2024-01-15T07:36:59;33.63;;;15.60;;
1262;SDS011;62267;50.112;8.704;2024-01-15T07:39:26;28.33;;;15.33;;
1262;SDS011;62267;50.112;8.704;2024-01-15T07:41:55;31.53;;;14.77;;
1262;SDS011;62267;50.112;8.704;2024-01-15T07:44:22;30.30;;;13.77;;
1262;SDS011;62267;50.112;8.704;2024-01-15T07:46:49;25.97;;;14.73;;
1262;SDS011;62267;50.112;8.704;2024-01-15T07:49:16;30.93;;;16.40;;
1262;SDS011;62267;50.112;8.704;2024-01-15T07:51:44;28.63;;;13.60;;
1262;SDS011;62267;50.112;8.704;2024-01-15T07:54:13;30.50;;;15.77;;
1262;SDS011;62267;50.112;8.704;2024-01-15T07:57:02;26.40;;;15.00;;
1262;SDS011;62267;50.112;8.704;2024-01-15T07:59:29;31.33;;;14.97;;
1262;SDS011;62267;50.112;8.704;2024-01-15T08:01:58;25.50;;;14.10;;
1262;SDS011;62267;50.112;8.704;2024-01-15T08:04:25;27.47;;;13.37;;
1262;SDS011;62267;50.112;8.704;2024-01-15T08:06:53;30.87;;;14.80;;
1262;SDS011;62267;50.112;8.704;2024-01-15T08:09:20;27.43;;;15.57;;
1262;SDS011;62267;50.112;8.704;2024-01-15T08:11:48;27.67;;;15.10;;
1262;SDS011;62267;50.112;8.704;2024-01-15T08:14:17;29.97;;;15.90;;
1262;SDS011;62267;50.112;8.704;2024-01-15T08:16:44;33.30;;;16.60;;
1262;SDS011;62267;50.112;8.704;2024-01-15T08:19:14;34.10;;;16.70;;
1262;SDS011;62267;50.112;8.704;2024-01-15T08:21:41;24.80;;;14.27;;
1262;SDS011;62267;50.112;8.704;2024-01-15T08:24:09;30.17;;;16.53;;
1262;SDS011;62267;50.112;8.704;2024-01-15T08:26:36;32.10;;;15.27;;
1262;SDS011;62267;50.112;8.704;2024-01-15T08:29:03;29.00;;;16.00;;
1262;SDS011;62267;50.112;8.704;2024-01-15T08:31:30;30.50;;;16.30;;
1262;SDS011;62267;50.112;8.704;2024-01-15T08:33:58;39.03;;;18.40;;
1262;SDS011;62267;50.112;8.704;2024-01-15T08:36:28;30.30;;;13.70;;
1262;SDS011;62267;50.112;8.704;2024-01-15T08:38:58;24.90;;;14.53;;
1262;SDS011;62267;50.112;8.704;2024-01-15T08:41:26;28.33;;;16.07;;
1262;SDS011;62267;50.112;8.704;2024-01-15T08:43:53;31.13;;;16.10;;
1262;SDS011;62267;50.112;8.704;2024-01-15T08:46:23;34.13;;;17.17;;
1262;SDS011;62267;50.112;8.704;2024-01-15T08:48:51;30.23;;;16.00;;
1262;SDS011;62267;50.112;8.704;2024-01-15T08:51:18;29.47;;;15.87;;
1262;SDS011;62267;50.112;8.704;2024-01-15T08:53:45;25.70;;;14.47;;
1262;SDS011;62267;50.112;8.704;2024-01-15T08:56:13;30.00;;;14.77;;
1262;SDS011;62267;50.112;8.704;2024-01-15T08:58:40;30.90;;;14.70;;
1262;SDS011;62267;50.112;8.704;2024-01-15T09:01:08;28.90;;;15.33;;
1262;SDS011;62267;50.112;8.704;2024-01-15T09:03:35;23.40;;;13.53;;
1262;SDS011;62267;50.112;8.704;2024-01-15T09:06:03;27.33;;;14.10;;
1262;SDS011;62267;50.112;8.704;2024-01-15T09:08:32;25.43;;;14.43;;
1262;SDS011;62267;50.112;8.704;2024-01-15T09:10:59;24.73;;;14.93;;
1262;SDS011;62267;50.112;8.704;2024-01-15T09:13:30;27.63;;;14.23;;
1262;SDS011;62267;50.112;8.704;2024-01-15T09:15:58;27.73;;;13.33;;
1262;SDS011;62267;50.112;8.704;2024-01-15T09:18:26;27.13;;;14.00;;
1262;SDS011;62267;50.112;8.704;2024-01-15T09:20:54;32.63;;;14.33;;
1262;SDS011;62267;50.112;8.704;2024-01-15T09:23:22;30.07;;;14.70;;
1262;SDS011;62267;50.112;8.704;2024-01-15T09:25:49;25.87;;;15.23;;
1262;SDS011;62267;50.112;8.704;2024-01-15T09:28:18;26.87;;;14.37;;
1262;SDS011;62267;50.112;8.704;2024-01-15T09:30:46;25.63;;;14.30;;
1262;SDS011;62267;50.112;8.704;2024-01-15T09:33:13;25.60;;;13.03;;
1262;SDS011;62267;50.112;8.704;2024-01-15T09:35:41;27.63;;;14.63;;
1262;SDS011;62267;50.112;8.704;2024-01-15T09:38:08;25.60;;;13.17;;
1262;SDS011;62267;50.112;8.704;2024-01-15T09:40:36;21.73;;;13.00;;
1262;SDS011;62267;50.112;8.704;2024-01-15T09:43:04;24.53;;;14.33;;
1262;SDS011;62267;50.112;8.704;2024-01-15T09:45:32;24.47;;;13.93;;
1262;SDS011;62267;50.112;8.704;2024-01-15T09:48:00;24.27;;;14.03;;
1262;SDS011;62267;50.112;8.704;2024-01-15T09:50:27;25.67;;;14.30;;
1262;SDS011;62267;50.112;8.704;2024-01-15T09:52:55;21.43;;;12.80;;
1262;SDS011;62267;50.112;8.704;2024-01-15T09:55:23;20.93;;;12.90;;
1262;SDS011;62267;50.112;8.704;2024-01-15T09:57:51;25.03;;;12.87;;
1262;SDS011;62267;50.112;8.704;2024-01-15T10:00:19;22.00;;;12.97;;
1262;SDS011;62267;50.112;8.704;2024-01-15T10:02:47;21.00;;;11.53;;
1262;SDS011;62267;50.112;8.704;2024-01-15T10:05:15;26.47;;;14.03;;
1262;SDS011;62267;50.112;8.704;2024-01-15T10:07:44;21.10;;;13.00;;
1262;SDS011;62267;50.112;8.704;2024-01-15T10:10:12;22.73;;;12.60;;
1262;SDS011;62267;50.112;8.704;2024-01-15T10:12:40;19.80;;;11.50;;
1262;SDS011;62267;50.112;8.704;2024-01-15T10:15:09;23.13;;;11.97;;
1262;SDS011;62267;50.112;8.704;2024-01-15T10:17:38;20.07;;;11.17;;
1262;SDS011;62267;50.112;8.704;2024-01-15T10:20:09;23.13;;;12.60;;
1262;SDS011;62267;50.112;8.704;2024-01-15T10:22:40;21.80;;;11.63;;
1262;SDS011;62267;50.112;8.704;2024-01-15T10:25:09;25.57;;;12.93;;
1262;SDS011;62267;50.112;8.704;2024-01-15T10:27:39;19.07;;;12.77;;
1262;SDS011;62267;50.112;8.704;2024-01-15T10:30:09;19.20;;;12.03;;
1262;SDS011;62267;50.112;8.704;2024-01-15T10:32:38;19.10;;;12.20;;
1262;SDS011;62267;50.112;8.704;2024-01-15T10:35:06;18.33;;;11.50;;
1262;SDS011;62267;50.112;8.704;2024-01-15T10:37:35;26.33;;;12.60;;
1262;SDS011;62267;50.112;8.704;2024-01-15T10:40:03;20.53;;;11.97;;
1262;SDS011;62267;50.112;8.704;2024-01-15T10:42:34;19.60;;;11.90;;
1262;SDS011;62267;50.112;8.704;2024-01-15T10:45:01;18.60;;;10.70;;
1262;SDS011;62267;50.112;8.704;2024-01-15T10:47:30;21.97;;;13.13;;
1262;SDS011;62267;50.112;8.704;2024-01-15T10:49:57;19.73;;;12.60;;
1262;SDS011;62267;50.112;8.704;2024-01-15T10:52:25;23.43;;;12.80;;
1262;SDS011;62267;50.112;8.704;2024-01-15T10:54:54;27.93;;;13.63;;
1262;SDS011;62267;50.112;8.704;2024-01-15T10:57:22;24.67;;;12.90;;
1262;SDS011;62267;50.112;8.704;2024-01-15T10:59:50;19.30;;;11.57;;
1262;SDS011;62267;50.112;8.704;2024-01-15T11:02:17;19.80;;;12.13;;
1262;SDS011;62267;50.112;8.704;2024-01-15T11:04:46;20.63;;;13.07;;
1262;SDS011;62267;50.112;8.704;2024-01-15T11:07:14;21.73;;;12.27;;
1262;SDS011;62267;50.112;8.704;2024-01-15T11:09:43;20.87;;;12.77;;
1262;SDS011;62267;50.112;8.704;2024-01-15T11:12:11;20.40;;;10.83;;
1262;SDS011;62267;50.112;8.704;2024-01-15T11:14:42;22.63;;;12.30;;
1262;SDS011;62267;50.112;8.704;2024-01-15T11:17:12;21.93;;;12.30;;
1262;SDS011;62267;50.112;8.704;2024-01-15T11:19:43;20.07;;;12.63;;
1262;SDS011;62267;50.112;8.704;2024-01-15T11:25:03;24.07;;;12.60;;
1262;SDS011;62267;50.112;8.704;2024-01-15T11:27:40;20.03;;;12.70;;
1262;SDS011;62267;50.112;8.704;2024-01-15T11:30:12;20.20;;;11.57;;
1262;SDS011;62267;50.112;8.704;2024-01-15T11:32:40;23.77;;;15.00;;
1262;SDS011;62267;50.112;8.704;2024-01-15T11:35:08;17.30;;;11.50;;
1262;SDS011;62267;50.112;8.704;2024-01-15T11:40:38;19.57;;;13.00;;
1262;SDS011;62267;50.112;8.704;2024-01-15T11:43:05;18.27;;;10.80;;
1262;SDS011;62267;50.112;8.704;2024-01-15T11:45:33;20.63;;;12.85;;
1262;SDS011;62267;50.112;8.704;2024-01-15T11:50:31;19.80;;;11.80;;
1262;SDS011;62267;50.112;8.704;2024-01-15T11:53:02;22.33;;;12.57;;
1262;SDS011;62267;50.112;8.704;2024-01-15T11:55:39;18.43;;;11.30;;
1262;SDS011;62267;50.112;8.704;2024-01-15T11:58:08;24.87;;;11.73;;
1262;SDS011;62267;50.112;8.704;2024-01-15T12:00:39;18.63;;;11.53;;
1262;SDS011;62267;50.112;8.704;2024-01-15T12:03:08;18.37;;;11.33;;
1262;SDS011;62267;50.112;8.704;2024-01-15T12:05:36;15.53;;;10.37;;
1262;SDS011;62267;50.112;8.704;2024-01-15T12:08:04;20.43;;;11.83;;
1262;SDS011;62267;50.112;8.704;2024-01-15T12:10:37;16.50;;;10.50;;
1262;SDS011;62267;50.112;8.704;2024-01-15T12:13:06;17.63;;;11.80;;
1262;SDS011;62267;50.112;8.704;2024-01-15T12:15:36;20.10;;;11.40;;
1262;SDS011;62267;50.112;8.704;2024-01-15T12:18:04;19.20;;;11.93;;
1262;SDS011;62267;50.112;8.704;2024-01-15T12:20:32;17.60;;;12.10;;
1262;SDS011;62267;50.112;8.704;2024-01-15T12:23:00;16.90;;;11.30;;
1262;SDS011;62267;50.112;8.704;2024-01-15T12:25:33;19.07;;;12.40;;
1262;SDS011;62267;50.112;8.704;2024-01-15T12:28:01;15.30;;;10.73;;
1262;SDS011;62267;50.112;8.704;2024-01-15T12:30:29;20.03;;;11.70;;
1262;SDS011;62267;50.112;8.704;2024-01-15T12:32:58;16.23;;;11.57;;
1262;SDS011;62267;50.112;8.704;2024-01-15T12:35:28;19.90;;;11.50;;
1262;SDS011;62267;50.112;8.704;2024-01-15T12:37:56;20.53;;;11.83;;
1262;SDS011;62267;50.112;8.704;2024-01-15T12:40:23;15.03;;;10.50;;
1262;SDS011;62267;50.112;8.704;2024-01-15T12:42:51;18.47;;;11.40;;
1262;SDS011;62267;50.112;8.704;2024-01-15T12:45:19;19.73;;;10.13;;
1262;SDS011;62267;50.112;8.704;2024-01-15T12:47:47;17.67;;;10.27;;
1262;SDS011;62267;50.112;8.704;2024-01-15T12:50:14;14.30;;;9.33;;
1262;SDS011;62267;50.112;8.704;2024-01-15T12:52:47;12.10;;;8.90;;
1262;SDS011;62267;50.112;8.704;2024-01-15T12:55:15;17.13;;;9.73;;
1262;SDS011;62267;50.112;8.704;2024-01-15T12:57:43;16.63;;;9.37;;
1262;SDS011;62267;50.112;8.704;2024-01-15T13:00:11;13.10;;;9.00;;
1262;SDS011;62267;50.112;8.704;2024-01-15T13:02:44;13.43;;;8.47;;
1262;SDS011;62267;50.112;8.704;2024-01-15T13:05:11;17.63;;;10.03;;
1262;SDS011;62267;50.112;8.704;2024-01-15T13:07:41;12.57;;;9.30;;
1262;SDS011;62267;50.112;8.704;2024-01-15T13:10:10;13.30;;;9.40;;
1262;SDS011;62267;50.112;8.704;2024-01-15T13:12:38;14.90;;;9.83;;
1262;SDS011;62267;50.112;8.704;2024-01-15T13:15:08;14.53;;;8.60;;
1262;SDS011;62267;50.112;8.704;2024-01-15T13:17:40;15.00;;;9.77;;
1262;SDS011;62267;50.112;8.704;2024-01-15T13:20:08;16.13;;;9.83;;
1262;SDS011;62267;50.112;8.704;2024-01-15T13:22:36;13.83;;;9.10;;
1262;SDS011;62267;50.112;8.704;2024-01-15T13:25:07;14.00;;;9.10;;
1262;SDS011;62267;50.112;8.704;2024-01-15T13:27:35;13.07;;;9.77;;
1262;SDS011;62267;50.112;8.704;2024-01-15T13:30:04;15.50;;;10.13;;
1262;SDS011;62267;50.112;8.704;2024-01-15T13:32:33;15.23;;;9.27;;
1262;SDS011;62267;50.112;8.704;2024-01-15T13:35:00;14.63;;;9.37;;
1262;SDS011;62267;50.112;8.704;2024-01-15T13:37:31;13.73;;;8.40;;
1262;SDS011;62267;50.112;8.704;2024-01-15T13:39:58;13.83;;;8.90;;
1262;SDS011;62267;50.112;8.704;2024-01-15T13:42:26;14.57;;;8.50;;
1262;SDS011;62267;50.112;8.704;2024-01-15T13:44:54;14.00;;;8.43;;
1262;SDS011;62267;50.112;8.704;2024-01-15T13:47:22;13.00;;;8.90;;
1262;SDS011;62267;50.112;8.704;2024-01-15T13:49:50;10.57;;;8.10;;
1262;SDS011;62267;50.112;8.704;2024-01-15T13:52:17;14.47;;;8.80;;
1262;SDS011;62267;50.112;8.704;2024-01-15T13:54:47;16.57;;;9.03;;
1262;SDS011;62267;50.112;8.704;2024-01-15T13:57:16;11.47;;;7.80;;
1262;SDS011;62267;50.112;8.704;2024-01-15T13:59:46;12.93;;;8.63;;
1262;SDS011;62267;50.112;8.704;2024-01-15T14:02:13;11.27;;;7.77;;
1262;SDS011;62267;50.112;8.704;2024-01-15T14:04:46;12.80;;;8.40;;
1262;SDS011;62267;50.112;8.704;2024-01-15T14:07:15;11.60;;;7.50;;
1262;SDS011;62267;50.112;8.704;2024-01-15T14:09:43;13.30;;;8.70;;
1262;SDS011;62267;50.112;8.704;2024-01-15T14:12:11;11.20;;;7.50;;
1262;SDS011;62267;50.112;8.704;2024-01-15T14:14:39;9.73;;;7.00;;
1262;SDS011;62267;50.112;8.704;2024-01-15T14:17:06;10.30;;;7.77;;
1262;SDS011;62267;50.112;8.704;2024-01-15T14:19:34;13.87;;;8.37;;
1262;SDS011;62267;50.112;8.704;2024-01-15T14:22:03;11.40;;;8.50;;
1262;SDS011;62267;50.112;8.704;2024-01-15T14:24:30;11.83;;;7.60;;
1262;SDS011;62267;50.112;8.704;2024-01-15T14:26:58;11.83;;;8.20;;
1262;SDS011;62267;50.112;8.704;2024-01-15T14:29:25;12.13;;;8.80;;
1262;SDS011;62267;50.112;8.704;2024-01-15T14:31:53;9.00;;;6.77;;
1262;SDS011;62267;50.112;8.704;2024-01-15T14:34:20;10.40;;;6.80;;
1262;SDS011;62267;50.112;8.704;2024-01-15T14:36:50;10.20;;;7.03;;
1262;SDS011;62267;50.112;8.704;2024-01-15T14:39:21;9.87;;;5.87;;
1262;SDS011;62267;50.112;8.704;2024-01-15T14:41:50;11.43;;;7.27;;
1262;SDS011;62267;50.112;8.704;2024-01-15T14:44:18;9.43;;;6.70;;
1262;SDS011;62267;50.112;8.704;2024-01-15T14:46:46;10.70;;;6.40;;
1262;SDS011;62267;50.112;8.704;2024-01-15T14:49:16;14.20;;;7.40;;